sensor_id;sensor_type;location;lat;lon;timestamp;temperature;humidity
47921;DHT22;33686;48.770;9.186;2023-03-19T06:16:29;10.50;99.90
47921;DHT22;33686;48.770;9.186;2023-03-19T06:18:57;10.40;99.90
47921;DHT22;33686;48.770;9.186;2023-03-19T06:21:23;10.50;99.90
47921;DHT22;33686;48.770;9.186;2023-03-19T06:23:57;10.50;99.90
47921;DHT22;33686;48.770;9.186;2023-03-19T06:26:29;10.50;99.90
47921;DHT22;33686;48.770;9.186;2023-03-19T06:28:57;10.60;99.90
47921;DHT22;33686;48.770;9.186;2023-03-19T06:31:23;10.60;99.90
47921;DHT22;33686;48.770;9.186;2023-03-19T06:33:56;10.70;99.90
47921;DHT22;33686;48.770;9.186;2023-03-19T06:36:27;10.80;99.90
47921;DHT22;33686;48.770;9.186;2023-03-19T06:38:54;10.70;99.90
47921;DHT22;33686;48.770;9.186;2023-03-19T06:41:19;10.80;99.90
47921;DHT22;33686;48.770;9.186;2023-03-19T06:43:46;10.90;99.90
47921;DHT22;33686;48.770;9.186;2023-03-19T06:46:12;10.80;99.90
47921;DHT22;33686;48.770;9.186;2023-03-19T06:48:37;10.90;99.90
47921;DHT22;33686;48.770;9.186;2023-03-19T06:51:03;11.00;99.90
47921;DHT22;33686;48.770;9.186;2023-03-19T06:53:29;11.00;99.90
47921;DHT22;33686;48.770;9.186;2023-03-19T06:55:55;11.20;99.90
47921;DHT22;33686;48.770;9.186;2023-03-19T06:58:21;11.20;99.90
47921;DHT22;33686;48.770;9.186;2023-03-19T07:00:46;11.40;99.90
47921;DHT22;33686;48.770;9.186;2023-03-19T07:03:12;11.50;99.90
47921;DHT22;33686;48.770;9.186;2023-03-19T07:05:37;11.70;99.90
47921;DHT22;33686;48.770;9.186;2023-03-19T07:08:03;11.80;99.90
47921;DHT22;33686;48.770;9.186;2023-03-19T07:10:29;11.80;99.90
47921;DHT22;33686;48.770;9.186;2023-03-19T07:12:54;11.80;99.90
47921;DHT22;33686;48.770;9.186;2023-03-19T07:15:20;11.80;99.90
47921;DHT22;33686;48.770;9.186;2023-03-19T07:17:46;11.90;99.90
47921;DHT22;33686;48.770;9.186;2023-03-19T07:20:12;11.80;99.90
47921;DHT22;33686;48.770;9.186;2023-03-19T07:22:37;11.80;99.90
47921;DHT22;33686;48.770;9.186;2023-03-19T07:25:03;11.90;99.90
47921;DHT22;33686;48.770;9.186;2023-03-19T07:27:29;11.90;99.90
47921;DHT22;33686;48.770;9.186;2023-03-19T07:29:54;11.90;99.90
47921;DHT22;33686;48.770;9.186;2023-03-19T07:32:20;11.90;99.90
47921;DHT22;33686;48.770;9.186;2023-03-19T07:34:46;11.90;99.90
47921;DHT22;33686;48.770;9.186;2023-03-19T07:37:12;11.90;99.90
47921;DHT22;33686;48.770;9.186;2023-03-19T07:39:37;11.90;99.90
47921;DHT22;33686;48.770;9.186;2023-03-19T07:42:03;12.00;99.90
47921;DHT22;33686;48.770;9.186;2023-03-19T07:44:30;12.10;99.90
47921;DHT22;33686;48.770;9.186;2023-03-19T07:46:56;12.10;99.90
47921;DHT22;33686;48.770;9.186;2023-03-19T07:49:22;12.20;99.90
47921;DHT22;33686;48.770;9.186;2023-03-19T07:51:47;12.10;99.90
47921;DHT22;33686;48.770;9.186;2023-03-19T07:54:13;12.10;99.90
47921;DHT22;33686;48.770;9.186;2023-03-19T07:56:38;12.10;99.90
47921;DHT22;33686;48.770;9.186;2023-03-19T07:59:04;12.00;99.90
47921;DHT22;33686;48.770;9.186;2023-03-19T08:01:30;12.00;99.90
47921;DHT22;33686;48.770;9.186;2023-03-19T08:03:56;11.90;99.90
47921;DHT22;33686;48.770;9.186;2023-03-19T08:06:21;12.00;99.90
47921;DHT22;33686;48.770;9.186;2023-03-19T08:08:47;12.10;99.90
47921;DHT22;33686;48.770;9.186;2023-03-19T08:11:13;12.10;99.90
47921;DHT22;33686;48.770;9.186;2023-03-19T08:13:39;12.10;99.90
47921;DHT22;33686;48.770;9.186;2023-03-19T08:16:04;12.10;99.90
47921;DHT22;33686;48.770;9.186;2023-03-19T08:18:30;12.30;99.90
47921;DHT22;33686;48.770;9.186;2023-03-19T08:20:56;12.30;99.90
47921;DHT22;33686;48.770;9.186;2023-03-19T08:23:22;12.50;99.90
47921;DHT22;33686;48.770;9.186;2023-03-19T08:25:48;12.60;99.90
47921;DHT22;33686;48.770;9.186;2023-03-19T08:28:16;12.70;99.90
47921;DHT22;33686;48.770;9.186;2023-03-19T08:30:41;12.70;99.90
47921;DHT22;33686;48.770;9.186;2023-03-19T08:33:07;12.80;99.90
47921;DHT22;33686;48.770;9.186;2023-03-19T08:35:33;12.70;99.90
47921;DHT22;33686;48.770;9.186;2023-03-19T08:37:58;12.60;99.90
47921;DHT22;33686;48.770;9.186;2023-03-19T08:40:24;12.50;99.90
47921;DHT22;33686;48.770;9.186;2023-03-19T08:42:49;12.50;99.90
47921;DHT22;33686;48.770;9.186;2023-03-19T08:45:15;12.50;99.90
47921;DHT22;33686;48.770;9.186;2023-03-19T08:47:41;12.50;99.90
47921;DHT22;33686;48.770;9.186;2023-03-19T08:50:08;12.50;99.90
47921;DHT22;33686;48.770;9.186;2023-03-19T08:52:33;12.60;99.90
47921;DHT22;33686;48.770;9.186;2023-03-19T08:54:59;12.70;99.90
47921;DHT22;33686;48.770;9.186;2023-03-19T08:57:25;12.90;99.90
47921;DHT22;33686;48.770;9.186;2023-03-19T08:59:53;13.00;99.90
47921;DHT22;33686;48.770;9.186;2023-03-19T09:02:18;13.10;99.90
47921;DHT22;33686;48.770;9.186;2023-03-19T09:04:44;13.10;99.90
47921;DHT22;33686;48.770;9.186;2023-03-19T09:07:10;13.20;99.90
47921;DHT22;33686;48.770;9.186;2023-03-19T09:09:38;13.60;99.90
47921;DHT22;33686;48.770;9.186;2023-03-19T09:12:04;13.80;99.90
47921;DHT22;33686;48.770;9.186;2023-03-19T09:16:57;14.60;99.90
47921;DHT22;33686;48.770;9.186;2023-03-19T09:19:23;15.00;99.90
47921;DHT22;33686;48.770;9.186;2023-03-19T09:21:49;15.30;99.90
47921;DHT22;33686;48.770;9.186;2023-03-19T09:24:15;14.70;99.90
47921;DHT22;33686;48.770;9.186;2023-03-19T09:26:40;14.80;99.90
47921;DHT22;33686;48.770;9.186;2023-03-19T09:29:06;15.10;99.90
47921;DHT22;33686;48.770;9.186;2023-03-19T09:31:32;15.40;99.90
47921;DHT22;33686;48.770;9.186;2023-03-19T09:33:58;15.30;99.90
47921;DHT22;33686;48.770;9.186;2023-03-19T09:36:23;15.50;99.90
47921;DHT22;33686;48.770;9.186;2023-03-19T09:38:49;15.80;99.90
47921;DHT22;33686;48.770;9.186;2023-03-19T09:41:18;16.20;99.90
47921;DHT22;33686;48.770;9.186;2023-03-19T09:43:55;16.30;99.90
47921;DHT22;33686;48.770;9.186;2023-03-19T09:46:24;16.20;99.90
47921;DHT22;33686;48.770;9.186;2023-03-19T09:48:53;16.20;99.90
47921;DHT22;33686;48.770;9.186;2023-03-19T09:51:22;16.20;99.90
47921;DHT22;33686;48.770;9.186;2023-03-19T09:53:59;16.80;99.90
47921;DHT22;33686;48.770;9.186;2023-03-19T09:56:25;16.90;99.90
47921;DHT22;33686;48.770;9.186;2023-03-19T09:58:52;16.20;99.90
47921;DHT22;33686;48.770;9.186;2023-03-19T10:01:39;16.50;99.90
47921;DHT22;33686;48.770;9.186;2023-03-19T10:06:44;16.70;99.90
47921;DHT22;33686;48.770;9.186;2023-03-19T10:09:15;17.00;99.90
47921;DHT22;33686;48.770;9.186;2023-03-19T10:14:35;17.50;99.90
47921;DHT22;33686;48.770;9.186;2023-03-19T10:17:06;17.70;99.90
47921;DHT22;33686;48.770;9.186;2023-03-19T10:19:49;17.80;99.90
47921;DHT22;33686;48.770;9.186;2023-03-19T10:22:23;17.30;99.90
47921;DHT22;33686;48.770;9.186;2023-03-19T10:24:50;17.30;99.90
47921;DHT22;33686;48.770;9.186;2023-03-19T10:27:18;17.30;99.90
47921;DHT22;33686;48.770;9.186;2023-03-19T10:29:44;17.20;99.90
47921;DHT22;33686;48.770;9.186;2023-03-19T10:32:13;17.20;99.90
47921;DHT22;33686;48.770;9.186;2023-03-19T10:34:41;17.00;99.90
47921;DHT22;33686;48.770;9.186;2023-03-19T10:37:14;16.90;99.90
47921;DHT22;33686;48.770;9.186;2023-03-19T10:39:41;16.80;99.90
47921;DHT22;33686;48.770;9.186;2023-03-19T10:44:49;16.80;99.90
47921;DHT22;33686;48.770;9.186;2023-03-19T10:47:15;16.90;99.90
47921;DHT22;33686;48.770;9.186;2023-03-19T10:49:41;17.00;99.90
47921;DHT22;33686;48.770;9.186;2023-03-19T10:52:15;17.00;99.90
47921;DHT22;33686;48.770;9.186;2023-03-19T10:54:42;17.10;99.90
47921;DHT22;33686;48.770;9.186;2023-03-19T10:57:17;17.30;99.90
47921;DHT22;33686;48.770;9.186;2023-03-19T10:59:45;17.40;99.90
47921;DHT22;33686;48.770;9.186;2023-03-19T11:02:22;17.50;99.90
47921;DHT22;33686;48.770;9.186;2023-03-19T11:04:48;17.50;99.90
47921;DHT22;33686;48.770;9.186;2023-03-19T11:07:17;17.50;99.90
47921;DHT22;33686;48.770;9.186;2023-03-19T11:09:47;17.60;99.70
47921;DHT22;33686;48.770;9.186;2023-03-19T11:12:21;17.50;99.70
47921;DHT22;33686;48.770;9.186;2023-03-19T11:14:49;17.50;99.50
47921;DHT22;33686;48.770;9.186;2023-03-19T11:19:49;17.50;99.40
47921;DHT22;33686;48.770;9.186;2023-03-19T11:22:18;17.60;99.90
47921;DHT22;33686;48.770;9.186;2023-03-19T11:24:52;17.60;99.60
47921;DHT22;33686;48.770;9.186;2023-03-19T11:27:18;17.50;99.50
47921;DHT22;33686;48.770;9.186;2023-03-19T11:29:50;17.60;99.80
47921;DHT22;33686;48.770;9.186;2023-03-19T11:34:49;17.60;99.70
47921;DHT22;33686;48.770;9.186;2023-03-19T11:40:04;17.70;99.70
47921;DHT22;33686;48.770;9.186;2023-03-19T11:42:43;17.80;99.60
47921;DHT22;33686;48.770;9.186;2023-03-19T11:50:38;17.90;99.00
47921;DHT22;33686;48.770;9.186;2023-03-19T12:00:52;17.70;97.90
47921;DHT22;33686;48.770;9.186;2023-03-19T12:11:41;18.20;97.80
47921;DHT22;33686;48.770;9.186;2023-03-19T12:16:38;18.40;97.70
47921;DHT22;33686;48.770;9.186;2023-03-19T12:29:22;18.00;97.90
47921;DHT22;33686;48.770;9.186;2023-03-19T12:34:39;18.00;98.00
47921;DHT22;33686;48.770;9.186;2023-03-19T12:37:15;18.10;97.90
47921;DHT22;33686;48.770;9.186;2023-03-19T12:39:43;18.20;97.80
47921;DHT22;33686;48.770;9.186;2023-03-19T12:42:13;18.10;97.80
47921;DHT22;33686;48.770;9.186;2023-03-19T12:44:42;18.10;98.00
47921;DHT22;33686;48.770;9.186;2023-03-19T12:47:19;18.00;98.10
47921;DHT22;33686;48.770;9.186;2023-03-19T12:49:50;17.90;98.00
47921;DHT22;33686;48.770;9.186;2023-03-19T12:52:25;18.10;98.00
47921;DHT22;33686;48.770;9.186;2023-03-19T12:55:02;18.00;98.30
47921;DHT22;33686;48.770;9.186;2023-03-19T12:57:34;18.10;98.00
47921;DHT22;33686;48.770;9.186;2023-03-19T13:00:06;18.20;98.00
47921;DHT22;33686;48.770;9.186;2023-03-19T13:02:35;18.10;98.10
47921;DHT22;33686;48.770;9.186;2023-03-19T13:05:07;18.00;98.20
47921;DHT22;33686;48.770;9.186;2023-03-19T13:07:48;17.70;98.30
47921;DHT22;33686;48.770;9.186;2023-03-19T13:10:19;17.60;98.70
47921;DHT22;33686;48.770;9.186;2023-03-19T13:12:45;17.00;99.90
47921;DHT22;33686;48.770;9.186;2023-03-19T13:18:00;16.20;99.90
47921;DHT22;33686;48.770;9.186;2023-03-19T13:23:05;14.70;99.90
47921;DHT22;33686;48.770;9.186;2023-03-19T13:25:34;14.40;99.90
47921;DHT22;33686;48.770;9.186;2023-03-19T13:28:01;14.20;99.90
47921;DHT22;33686;48.770;9.186;2023-03-19T13:30:30;14.30;99.90
47921;DHT22;33686;48.770;9.186;2023-03-19T13:33:00;14.40;99.90
47921;DHT22;33686;48.770;9.186;2023-03-19T13:40:46;15.20;99.90
47921;DHT22;33686;48.770;9.186;2023-03-19T13:48:35;15.30;99.90
47921;DHT22;33686;48.770;9.186;2023-03-19T13:51:12;15.40;99.90
47921;DHT22;33686;48.770;9.186;2023-03-19T13:53:54;15.20;99.90
47921;DHT22;33686;48.770;9.186;2023-03-19T13:56:20;15.10;99.90
47921;DHT22;33686;48.770;9.186;2023-03-19T13:59:17;15.30;99.90
47921;DHT22;33686;48.770;9.186;2023-03-19T14:01:38;15.20;99.90
47921;DHT22;33686;48.770;9.186;2023-03-19T14:04:12;15.30;99.90
47921;DHT22;33686;48.770;9.186;2023-03-19T14:06:40;15.30;99.90
47921;DHT22;33686;48.770;9.186;2023-03-19T14:12:07;15.30;99.90
47921;DHT22;33686;48.770;9.186;2023-03-19T14:14:33;15.00;99.90
47921;DHT22;33686;48.770;9.186;2023-03-19T14:17:03;14.80;99.90
47921;DHT22;33686;48.770;9.186;2023-03-19T14:19:28;14.50;99.90
47921;DHT22;33686;48.770;9.186;2023-03-19T14:24:27;14.30;99.90
47921;DHT22;33686;48.770;9.186;2023-03-19T14:26:53;14.60;99.90
47921;DHT22;33686;48.770;9.186;2023-03-19T14:29:21;14.70;99.90
47921;DHT22;33686;48.770;9.186;2023-03-19T14:31:52;14.70;99.90
47921;DHT22;33686;48.770;9.186;2023-03-19T14:34:19;15.00;99.90
47921;DHT22;33686;48.770;9.186;2023-03-19T14:36:57;14.90;99.90
47921;DHT22;33686;48.770;9.186;2023-03-19T14:39:24;15.00;99.90
47921;DHT22;33686;48.770;9.186;2023-03-19T14:42:04;15.20;99.90
47921;DHT22;33686;48.770;9.186;2023-03-19T14:44:37;15.10;99.90
47921;DHT22;33686;48.770;9.186;2023-03-19T14:49:43;15.10;99.90
47921;DHT22;33686;48.770;9.186;2023-03-19T14:52:19;15.10;99.90
47921;DHT22;33686;48.770;9.186;2023-03-19T14:55:29;15.10;99.90
47921;DHT22;33686;48.770;9.186;2023-03-19T14:57:35;15.10;99.90
47921;DHT22;33686;48.770;9.186;2023-03-19T15:00:02;15.20;99.90
47921;DHT22;33686;48.770;9.186;2023-03-19T15:04:56;14.80;99.90
47921;DHT22;33686;48.770;9.186;2023-03-19T15:07:29;14.80;99.90
47921;DHT22;33686;48.770;9.186;2023-03-19T15:09:57;14.80;99.90
47921;DHT22;33686;48.770;9.186;2023-03-19T15:12:27;14.60;99.90
47921;DHT22;33686;48.770;9.186;2023-03-19T15:17:28;14.40;99.90
47921;DHT22;33686;48.770;9.186;2023-03-19T15:19:55;14.40;99.90
47921;DHT22;33686;48.770;9.186;2023-03-19T15:22:27;14.40;99.90
47921;DHT22;33686;48.770;9.186;2023-03-19T15:25:03;14.30;99.90
47921;DHT22;33686;48.770;9.186;2023-03-19T15:27:29;14.10;99.90
47921;DHT22;33686;48.770;9.186;2023-03-19T15:29:55;14.20;99.90
47921;DHT22;33686;48.770;9.186;2023-03-19T15:32:38;14.20;99.90
47921;DHT22;33686;48.770;9.186;2023-03-19T15:35:04;14.30;99.90
47921;DHT22;33686;48.770;9.186;2023-03-19T15:37:34;14.30;99.90
47921;DHT22;33686;48.770;9.186;2023-03-19T15:40:01;14.10;99.90
47921;DHT22;33686;48.770;9.186;2023-03-19T15:42:27;14.10;99.90
47921;DHT22;33686;48.770;9.186;2023-03-19T15:44:56;14.00;99.90
47921;DHT22;33686;48.770;9.186;2023-03-19T15:47:24;13.90;99.90
47921;DHT22;33686;48.770;9.186;2023-03-19T15:49:53;13.80;99.90
47921;DHT22;33686;48.770;9.186;2023-03-19T15:52:20;13.80;99.90
47921;DHT22;33686;48.770;9.186;2023-03-19T15:54:46;13.70;99.90
47921;DHT22;33686;48.770;9.186;2023-03-19T15:57:12;13.80;99.90
47921;DHT22;33686;48.770;9.186;2023-03-19T15:59:38;13.60;99.90
47921;DHT22;33686;48.770;9.186;2023-03-19T16:02:11;13.60;99.90
47921;DHT22;33686;48.770;9.186;2023-03-19T16:04:38;13.60;99.90
47921;DHT22;33686;48.770;9.186;2023-03-19T16:07:03;13.50;99.90
47921;DHT22;33686;48.770;9.186;2023-03-19T16:11:55;13.40;99.90
47921;DHT22;33686;48.770;9.186;2023-03-19T16:14:25;13.00;99.90
47921;DHT22;33686;48.770;9.186;2023-03-19T16:16:52;12.50;99.90
47921;DHT22;33686;48.770;9.186;2023-03-19T16:19:33;12.40;99.90
47921;DHT22;33686;48.770;9.186;2023-03-19T16:22:00;12.50;99.90
47921;DHT22;33686;48.770;9.186;2023-03-19T16:24:29;12.40;99.90
47921;DHT22;33686;48.770;9.186;2023-03-19T16:26:57;12.20;99.90
47921;DHT22;33686;48.770;9.186;2023-03-19T16:29:23;12.00;99.90
47921;DHT22;33686;48.770;9.186;2023-03-19T16:31:59;11.90;99.90
47921;DHT22;33686;48.770;9.186;2023-03-19T16:36:55;11.80;99.90
47921;DHT22;33686;48.770;9.186;2023-03-19T16:39:23;11.80;99.90
47921;DHT22;33686;48.770;9.186;2023-03-19T16:44:32;11.60;99.90
47921;DHT22;33686;48.770;9.186;2023-03-19T16:46:58;11.40;99.90
47921;DHT22;33686;48.770;9.186;2023-03-19T16:49:24;11.50;99.90
47921;DHT22;33686;48.770;9.186;2023-03-19T16:51:49;11.50;99.90
47921;DHT22;33686;48.770;9.186;2023-03-19T16:54:15;11.30;99.90
47921;DHT22;33686;48.770;9.186;2023-03-19T16:56:41;11.20;99.90
47921;DHT22;33686;48.770;9.186;2023-03-19T16:59:09;11.20;99.90
47921;DHT22;33686;48.770;9.186;2023-03-19T17:01:38;11.20;99.90
47921;DHT22;33686;48.770;9.186;2023-03-19T17:04:07;11.30;99.90
47921;DHT22;33686;48.770;9.186;2023-03-19T17:06:33;11.40;99.90
47921;DHT22;33686;48.770;9.186;2023-03-19T17:08:59;11.50;99.90
47921;DHT22;33686;48.770;9.186;2023-03-19T17:13:51;11.40;99.90
47921;DHT22;33686;48.770;9.186;2023-03-19T17:16:17;11.40;99.90
47921;DHT22;33686;48.770;9.186;2023-03-19T17:18:42;11.10;99.90
47921;DHT22;33686;48.770;9.186;2023-03-19T17:21:13;11.00;99.90
47921;DHT22;33686;48.770;9.186;2023-03-19T17:23:40;11.10;99.90
47921;DHT22;33686;48.770;9.186;2023-03-19T17:26:16;11.20;99.90
47921;DHT22;33686;48.770;9.186;2023-03-19T17:28:42;11.30;99.90
47921;DHT22;33686;48.770;9.186;2023-03-19T17:31:11;11.20;99.90
47921;DHT22;33686;48.770;9.186;2023-03-19T17:33:42;11.20;99.90
47921;DHT22;33686;48.770;9.186;2023-03-19T17:36:07;11.30;99.90
47921;DHT22;33686;48.770;9.186;2023-03-19T17:38:33;11.30;99.90
47921;DHT22;33686;48.770;9.186;2023-03-19T17:40:59;11.40;99.90
47921;DHT22;33686;48.770;9.186;2023-03-19T17:43:24;11.40;99.90
47921;DHT22;33686;48.770;9.186;2023-03-19T17:45:50;11.40;99.90
47921;DHT22;33686;48.770;9.186;2023-03-19T17:48:17;11.40;99.90
47921;DHT22;33686;48.770;9.186;2023-03-19T17:50:45;11.50;99.90
47921;DHT22;33686;48.770;9.186;2023-03-19T17:53:11;11.50;99.90
47921;DHT22;33686;48.770;9.186;2023-03-19T17:55:39;11.40;99.90
47921;DHT22;33686;48.770;9.186;2023-03-19T17:58:05;11.10;99.90
47921;DHT22;33686;48.770;9.186;2023-03-19T18:00:31;11.00;99.90
47921;DHT22;33686;48.770;9.186;2023-03-19T18:02:57;11.00;99.90
47921;DHT22;33686;48.770;9.186;2023-03-19T18:05:23;11.00;99.90
47921;DHT22;33686;48.770;9.186;2023-03-19T18:07:50;11.00;99.90
47921;DHT22;33686;48.770;9.186;2023-03-19T18:10:18;10.90;99.90
47921;DHT22;33686;48.770;9.186;2023-03-19T18:12:44;11.00;99.90
47921;DHT22;33686;48.770;9.186;2023-03-19T18:15:13;10.90;99.90
47921;DHT22;33686;48.770;9.186;2023-03-19T18:17:40;10.80;99.90
47921;DHT22;33686;48.770;9.186;2023-03-19T18:20:09;10.70;99.90
47921;DHT22;33686;48.770;9.186;2023-03-19T18:22:35;10.50;99.90
47921;DHT22;33686;48.770;9.186;2023-03-19T18:25:01;10.50;99.90
47921;DHT22;33686;48.770;9.186;2023-03-19T18:27:26;10.70;99.90
47921;DHT22;33686;48.770;9.186;2023-03-19T18:29:52;10.70;99.90
47921;DHT22;33686;48.770;9.186;2023-03-19T18:32:25;10.70;99.90
47921;DHT22;33686;48.770;9.186;2023-03-19T18:34:51;10.70;99.90
47921;DHT22;33686;48.770;9.186;2023-03-19T18:37:17;10.60;99.90
47921;DHT22;33686;48.770;9.186;2023-03-19T18:39:43;10.50;99.90
47921;DHT22;33686;48.770;9.186;2023-03-19T18:42:09;10.60;99.90
47921;DHT22;33686;48.770;9.186;2023-03-19T18:44:36;10.40;99.90
47921;DHT22;33686;48.770;9.186;2023-03-19T18:47:02;10.40;99.90
47921;DHT22;33686;48.770;9.186;2023-03-19T18:49:27;10.30;99.90
47921;DHT22;33686;48.770;9.186;2023-03-19T18:51:53;10.20;99.90
47921;DHT22;33686;48.770;9.186;2023-03-19T18:54:19;10.10;99.90
47921;DHT22;33686;48.770;9.186;2023-03-19T18:56:45;10.10;99.90
47921;DHT22;33686;48.770;9.186;2023-03-19T18:59:21;10.10;99.90
47921;DHT22;33686;48.770;9.186;2023-03-19T19:01:48;10.00;99.90
47921;DHT22;33686;48.770;9.186;2023-03-19T19:04:15;10.00;99.90
47921;DHT22;33686;48.770;9.186;2023-03-19T19:06:40;10.00;99.90
47921;DHT22;33686;48.770;9.186;2023-03-19T19:09:08;10.20;99.90
47921;DHT22;33686;48.770;9.186;2023-03-19T19:11:35;10.40;99.90
47921;DHT22;33686;48.770;9.186;2023-03-19T19:14:00;10.40;99.90
47921;DHT22;33686;48.770;9.186;2023-03-19T19:16:31;10.40;99.90
47921;DHT22;33686;48.770;9.186;2023-03-19T19:19:00;10.10;99.90
47921;DHT22;33686;48.770;9.186;2023-03-19T19:21:25;10.20;99.90
47921;DHT22;33686;48.770;9.186;2023-03-19T19:23:51;10.10;99.90
47921;DHT22;33686;48.770;9.186;2023-03-19T19:26:19;9.90;99.90
47921;DHT22;33686;48.770;9.186;2023-03-19T19:28:45;9.90;99.90
47921;DHT22;33686;48.770;9.186;2023-03-19T19:31:17;10.00;99.90
47921;DHT22;33686;48.770;9.186;2023-03-19T19:33:45;10.00;99.90
47921;DHT22;33686;48.770;9.186;2023-03-19T19:36:10;10.10;99.90
47921;DHT22;33686;48.770;9.186;2023-03-19T19:38:36;10.20;99.90
47921;DHT22;33686;48.770;9.186;2023-03-19T19:41:01;10.30;99.90
47921;DHT22;33686;48.770;9.186;2023-03-19T19:43:27;10.40;99.90
47921;DHT22;33686;48.770;9.186;2023-03-19T19:45:54;10.40;99.90
47921;DHT22;33686;48.770;9.186;2023-03-19T19:48:21;9.90;99.90
47921;DHT22;33686;48.770;9.186;2023-03-19T19:50:48;9.70;99.90
47921;DHT22;33686;48.770;9.186;2023-03-19T19:53:14;9.60;99.90
47921;DHT22;33686;48.770;9.186;2023-03-19T19:55:40;9.60;99.90
47921;DHT22;33686;48.770;9.186;2023-03-19T19:58:06;9.70;99.90
47921;DHT22;33686;48.770;9.186;2023-03-19T20:00:37;9.80;99.90
47921;DHT22;33686;48.770;9.186;2023-03-19T20:03:02;9.80;99.90
47921;DHT22;33686;48.770;9.186;2023-03-19T20:05:29;9.90;99.90
47921;DHT22;33686;48.770;9.186;2023-03-19T20:07:56;9.80;99.90
47921;DHT22;33686;48.770;9.186;2023-03-19T20:10:23;9.80;99.90
47921;DHT22;33686;48.770;9.186;2023-03-19T20:12:50;9.80;99.90
47921;DHT22;33686;48.770;9.186;2023-03-19T20:15:18;9.90;99.90
47921;DHT22;33686;48.770;9.186;2023-03-19T20:17:44;9.90;99.90
47921;DHT22;33686;48.770;9.186;2023-03-19T20:20:13;10.00;99.90
47921;DHT22;33686;48.770;9.186;2023-03-19T20:22:39;9.90;99.90
47921;DHT22;33686;48.770;9.186;2023-03-19T20:25:05;9.80;99.90
47921;DHT22;33686;48.770;9.186;2023-03-19T20:27:31;9.70;99.90
47921;DHT22;33686;48.770;9.186;2023-03-19T20:29:57;9.80;99.90
47921;DHT22;33686;48.770;9.186;2023-03-19T20:32:27;9.80;99.90
47921;DHT22;33686;48.770;9.186;2023-03-19T20:34:55;9.60;99.90
47921;DHT22;33686;48.770;9.186;2023-03-19T20:37:21;9.60;99.90
47921;DHT22;33686;48.770;9.186;2023-03-19T20:39:46;9.50;99.90
47921;DHT22;33686;48.770;9.186;2023-03-19T20:42:13;9.60;99.90
47921;DHT22;33686;48.770;9.186;2023-03-19T20:44:39;9.50;99.90
47921;DHT22;33686;48.770;9.186;2023-03-19T20:47:15;9.50;99.90
47921;DHT22;33686;48.770;9.186;2023-03-19T20:49:42;9.50;99.90
47921;DHT22;33686;48.770;9.186;2023-03-19T20:52:08;9.40;99.90
47921;DHT22;33686;48.770;9.186;2023-03-19T20:54:39;9.50;99.90
47921;DHT22;33686;48.770;9.186;2023-03-19T20:57:10;9.40;99.90
47921;DHT22;33686;48.770;9.186;2023-03-19T20:59:36;9.30;99.90
47921;DHT22;33686;48.770;9.186;2023-03-19T21:02:06;9.30;99.90
47921;DHT22;33686;48.770;9.186;2023-03-19T21:04:33;9.40;99.90
47921;DHT22;33686;48.770;9.186;2023-03-19T21:07:00;9.50;99.90
47921;DHT22;33686;48.770;9.186;2023-03-19T21:09:25;9.50;99.90
47921;DHT22;33686;48.770;9.186;2023-03-19T21:11:51;9.40;99.90
47921;DHT22;33686;48.770;9.186;2023-03-19T21:14:17;9.50;99.90
47921;DHT22;33686;48.770;9.186;2023-03-19T21:16:42;9.70;99.90
47921;DHT22;33686;48.770;9.186;2023-03-19T21:19:08;9.80;99.90
47921;DHT22;33686;48.770;9.186;2023-03-19T21:21:34;9.80;99.90
47921;DHT22;33686;48.770;9.186;2023-03-19T21:24:04;9.70;99.90
47921;DHT22;33686;48.770;9.186;2023-03-19T21:26:30;9.40;99.90
47921;DHT22;33686;48.770;9.186;2023-03-19T21:29:01;9.40;99.90
47921;DHT22;33686;48.770;9.186;2023-03-19T21:31:28;9.40;99.90
47921;DHT22;33686;48.770;9.186;2023-03-19T21:33:53;9.50;99.90
47921;DHT22;33686;48.770;9.186;2023-03-19T21:36:19;9.70;99.90
47921;DHT22;33686;48.770;9.186;2023-03-19T21:38:45;9.70;99.90
47921;DHT22;33686;48.770;9.186;2023-03-19T21:41:16;9.70;99.90
47921;DHT22;33686;48.770;9.186;2023-03-19T21:43:46;9.50;99.90
47921;DHT22;33686;48.770;9.186;2023-03-19T21:46:14;9.60;99.90
47921;DHT22;33686;48.770;9.186;2023-03-19T21:48:40;9.40;99.90
47921;DHT22;33686;48.770;9.186;2023-03-19T21:51:08;9.40;99.90
47921;DHT22;33686;48.770;9.186;2023-03-19T21:53:37;9.40;99.90
47921;DHT22;33686;48.770;9.186;2023-03-19T21:56:03;9.40;99.90
47921;DHT22;33686;48.770;9.186;2023-03-19T21:58:29;9.40;99.90
47921;DHT22;33686;48.770;9.186;2023-03-19T22:00:55;9.40;99.90
47921;DHT22;33686;48.770;9.186;2023-03-19T22:03:21;9.10;99.90
47921;DHT22;33686;48.770;9.186;2023-03-19T22:05:47;9.10;99.90
47921;DHT22;33686;48.770;9.186;2023-03-19T22:08:17;8.90;99.90
47921;DHT22;33686;48.770;9.186;2023-03-19T22:10:44;8.80;99.90
47921;DHT22;33686;48.770;9.186;2023-03-19T22:13:21;8.80;99.90
47921;DHT22;33686;48.770;9.186;2023-03-19T22:15:47;8.80;99.90
47921;DHT22;33686;48.770;9.186;2023-03-19T22:18:14;8.90;99.90
47921;DHT22;33686;48.770;9.186;2023-03-19T22:20:40;8.80;99.90
47921;DHT22;33686;48.770;9.186;2023-03-19T22:23:06;9.00;99.90
47921;DHT22;33686;48.770;9.186;2023-03-19T22:25:32;9.10;99.90
47921;DHT22;33686;48.770;9.186;2023-03-19T22:27:59;9.10;99.90
47921;DHT22;33686;48.770;9.186;2023-03-19T22:30:34;9.00;99.90
47921;DHT22;33686;48.770;9.186;2023-03-19T22:33:01;9.00;99.90
47921;DHT22;33686;48.770;9.186;2023-03-19T22:35:28;9.00;99.90
47921;DHT22;33686;48.770;9.186;2023-03-19T22:37:53;8.90;99.90
47921;DHT22;33686;48.770;9.186;2023-03-19T22:40:19;9.00;99.90
47921;DHT22;33686;48.770;9.186;2023-03-19T22:42:45;9.20;99.90
47921;DHT22;33686;48.770;9.186;2023-03-19T22:45:25;9.30;99.90
47921;DHT22;33686;48.770;9.186;2023-03-19T22:47:51;9.40;99.90
47921;DHT22;33686;48.770;9.186;2023-03-19T22:50:18;9.40;99.90
47921;DHT22;33686;48.770;9.186;2023-03-19T22:52:45;9.40;99.90
47921;DHT22;33686;48.770;9.186;2023-03-19T22:55:10;9.40;99.90
47921;DHT22;33686;48.770;9.186;2023-03-19T22:57:36;9.10;99.90
47921;DHT22;33686;48.770;9.186;2023-03-19T23:00:03;9.10;99.90
